Time;durP1;ratioP1;P1;durP2;ratioP2;P2;SDS_P1;SDS_P2;PMS_P1;PMS_P2;Temp;Humidity;BMP_temperature;BMP_pressure;BME280_temperature;BME280_humidity;BME280_pressure;Samples;Min_cycle;Max_cycle;Signal;HPM_P1;HPM_P2
2022/06/27 00:00:14;;;;;;;14.13;10.32;;;;;;;15.88;90.77;101479.41;6308518;22;20003;-80
2022/06/27 00:02:39;;;;;;;14.27;10.75;;;;;;;16.16;92.04;101527.69;6308083;22;19999;-82
2022/06/27 00:05:05;;;;;;;12.40;10.10;;;;;;;16.14;91.88;101527.81;6308195;22;20000;-81
2022/06/27 00:07:31;;;;;;;12.98;9.30;;;;;;;16.09;93.00;101534.28;6308855;22;20015;-82
2022/06/27 00:09:56;;;;;;;13.20;9.57;;;;;;;15.91;92.56;101502.63;6308328;22;20000;-80
2022/06/27 00:12:21;;;;;;;13.77;9.75;;;;;;;15.91;92.99;101495.63;6308516;22;20007;-82
2022/06/27 00:14:47;;;;;;;11.30;9.52;;;;;;;16.13;93.30;101526.16;6308514;22;20007;-83
2022/06/27 00:17:12;;;;;;;12.15;9.75;;;;;;;15.85;93.58;101482.28;6307851;22;20004;-83
2022/06/27 00:19:38;;;;;;;14.43;10.30;;;;;;;15.82;93.87;101477.25;6308038;22;20057;-80
2022/06/27 00:22:04;;;;;;;12.88;10.43;;;;;;;16.06;94.03;101530.97;6308198;22;20003;-81
2022/06/27 00:24:30;;;;;;;11.60;9.68;;;;;;;16.05;94.20;101542.34;6308298;22;20035;-83
2022/06/27 00:26:56;;;;;;;13.80;10.52;;;;;;;16.05;93.93;101544.13;6308300;22;20003;-82
2022/06/27 00:29:21;;;;;;;14.60;10.65;;;;;;;16.05;94.11;101541.53;6308004;22;20007;-84
2022/06/27 00:31:46;;;;;;;14.05;10.70;;;;;;;16.05;93.68;101541.53;6308306;22;20003;-81
2022/06/27 00:34:12;;;;;;;12.43;10.55;;;;;;;16.06;94.35;101551.81;6307994;22;20003;-81
2022/06/27 00:36:37;;;;;;;14.40;10.98;;;;;;;15.73;94.33;101503.06;6307879;22;20187;-81
2022/06/27 00:39:03;;;;;;;14.88;10.75;;;;;;;15.61;94.45;101482.28;6307805;22;20007;-81
2022/06/27 00:41:28;;;;;;;14.02;11.32;;;;;;;15.84;94.70;101524.88;6280899;22;20049;-84
2022/06/27 00:43:54;;;;;;;12.32;10.40;;;;;;;16.00;94.57;101539.25;6308081;22;20005;-82
2022/06/27 00:46:19;;;;;;;13.40;10.82;;;;;;;16.06;94.26;101549.22;6308014;22;20026;-82
2022/06/27 00:48:44;;;;;;;12.25;10.20;;;;;;;16.07;94.61;101550.03;6307686;22;20392;-85
2022/06/27 00:51:10;;;;;;;12.27;10.88;;;;;;;15.71;95.08;101496.28;6308001;22;20409;-82
2022/06/27 00:53:37;;;;;;;13.23;10.48;;;;;;;15.81;95.22;101517.28;6307771;22;20004;-81
2022/06/27 00:56:03;;;;;;;11.95;10.18;;;;;;;16.05;95.63;101567.56;6307768;22;20329;-82
2022/06/27 00:58:28;;;;;;;15.65;11.02;;;;;;;15.88;95.56;101539.31;6307747;22;20007;-85
2022/06/27 01:00:54;;;;;;;13.40;10.07;;;;;;;16.04;95.60;101563.31;6308321;22;20007;-81
2022/06/27 01:03:19;;;;;;;14.63;9.93;;;;;;;15.99;95.59;101562.81;6308004;22;20010;-82
2022/06/27 01:05:53;;;;;;;13.38;10.88;;;;;;;16.06;95.69;101562.25;6307630;22;20436;-82
2022/06/27 01:08:20;;;;;;;13.07;11.13;;;;;;;16.03;95.70;101559.88;6307776;22;20053;-81
2022/06/27 01:10:47;;;;;;;12.30;10.85;;;;;;;16.04;96.07;101569.34;6308035;22;20070;-83
2022/06/27 01:13:12;;;;;;;14.57;11.45;;;;;;;16.03;96.05;101566.88;6308116;22;19999;-81
2022/06/27 01:15:39;;;;;;;14.43;11.50;;;;;;;15.94;95.63;101544.94;6279913;22;20026;-81
2022/06/27 01:18:04;;;;;;;12.63;11.15;;;;;;;16.00;95.62;101560.06;6307302;22;20433;-83
2022/06/27 01:20:30;;;;;;;14.65;12.10;;;;;;;15.74;95.63;101520.34;6307855;22;20025;-81
2022/06/27 01:22:55;;;;;;;17.35;11.85;;;;;;;16.05;95.74;101572.78;6307628;22;20000;-81
2022/06/27 01:25:24;;;;;;;12.63;11.30;;;;;;;16.06;95.97;101571.84;6307872;22;20004;-80
2022/06/27 01:27:49;;;;;;;14.90;12.10;;;;;;;15.93;96.06;101550.25;6307880;22;20069;-83
2022/06/27 01:30:15;;;;;;;14.88;12.25;;;;;;;16.07;95.67;101576.09;6279903;22;20000;-83
2022/06/27 01:32:42;;;;;;;14.52;11.93;;;;;;;16.08;95.63;101567.34;6307447;22;20003;-85
2022/06/27 01:35:08;;;;;;;13.80;11.80;;;;;;;16.08;96.03;101569.94;6279373;22;20011;-81
2022/06/27 01:37:33;;;;;;;14.80;12.73;;;;;;;15.86;96.26;101528.19;6307205;22;19999;-81
2022/06/27 01:40:00;;;;;;;14.05;12.25;;;;;;;16.07;96.49;101557.88;6307855;22;20003;-82
2022/06/27 01:42:27;;;;;;;17.50;12.90;;;;;;;15.76;96.44;101508.03;6307743;22;20004;-83
2022/06/27 01:44:53;;;;;;;15.40;12.63;;;;;;;16.02;96.21;101539.13;6279678;22;20382;-81
2022/06/27 01:47:18;;;;;;;14.95;12.50;;;;;;;16.04;95.27;101545.06;6279880;22;20003;-82
2022/06/27 01:49:44;;;;;;;16.73;12.77;;;;;;;15.94;96.03;101520.66;6307034;22;20007;-81
2022/06/27 01:52:13;;;;;;;14.50;11.68;;;;;;;15.99;96.13;101528.94;6307642;22;20462;-80
2022/06/27 01:54:39;;;;;;;16.23;12.60;;;;;;;15.78;96.14;101490.53;6307712;22;20004;-84
2022/06/27 01:57:05;;;;;;;14.27;12.32;;;;;;;15.98;96.09;101525.50;6307496;22;20029;-80
2022/06/27 01:59:31;;;;;;;14.13;11.73;;;;;;;15.98;96.51;101528.09;6307870;22;20003;-83
2022/06/27 02:01:58;;;;;;;15.27;13.05;;;;;;;15.77;96.53;101494.06;6306943;22;20090;-83
2022/06/27 02:04:24;;;;;;;15.00;11.38;;;;;;;15.88;96.85;101506.28;6307213;22;20045;-79
2022/06/27 02:06:51;;;;;;;12.50;11.18;;;;;;;15.78;96.92;101487.09;6307134;22;20022;-82
2022/06/27 02:09:16;;;;;;;13.52;11.15;;;;;;;15.92;97.39;101514.69;6307047;22;20003;-83
2022/06/27 02:11:44;;;;;;;13.60;11.27;;;;;;;15.75;97.45;101488.16;6306864;22;20409;-82
2022/06/27 02:14:09;;;;;;;18.55;11.30;;;;;;;15.59;97.12;101469.38;6307129;22;20039;-83
2022/06/27 02:16:34;;;;;;;13.48;10.65;;;;;;;15.88;97.39;101511.50;6306753;22;20048;-82
2022/06/27 02:19:00;;;;;;;11.95;9.88;;;;;;;15.88;97.68;101515.88;6306974;22;20022;-81
2022/06/27 02:21:28;;;;;;;13.50;11.05;;;;;;;15.86;97.82;101508.19;6307327;22;20014;-80
2022/06/27 02:23:55;;;;;;;16.67;11.02;;;;;;;15.82;97.83;101506.75;6308076;22;19999;-81
2022/06/27 02:26:24;;;;;;;13.05;10.55;;;;;;;15.81;97.98;101507.69;6307225;22;19999;-82
2022/06/27 02:28:51;;;;;;;16.45;11.00;;;;;;;15.82;98.12;101505.91;6306984;22;20417;-82
2022/06/27 02:31:17;;;;;;;14.18;11.23;;;;;;;15.76;98.11;101492.41;6306839;22;19999;-83
2022/06/27 02:33:45;;;;;;;13.05;10.90;;;;;;;15.81;98.22;101491.22;6306849;22;20364;-82
2022/06/27 02:36:15;;;;;;;14.88;11.25;;;;;;;15.81;98.16;101489.47;6306511;22;20060;-83
2022/06/27 02:38:42;;;;;;;15.07;10.38;;;;;;;15.77;98.39;101490.63;6279306;22;20337;-83
2022/06/27 02:41:12;;;;;;;14.05;11.88;;;;;;;15.65;97.85;101470.72;6306436;22;20000;-82
2022/06/27 02:43:39;;;;;;;14.20;10.70;;;;;;;15.40;98.20;101438.66;6306832;22;20014;-82
2022/06/27 02:46:04;;;;;;;14.07;10.57;;;;;;;15.72;98.20;101501.38;6306852;22;20011;-82
2022/06/27 02:48:31;;;;;;;16.95;12.40;;;;;;;15.69;97.84;101493.81;6307039;22;20034;-84
2022/06/27 02:51:03;;;;;;;15.73;12.15;;;;;;;15.43;97.66;101442.78;6306657;22;20000;-84
2022/06/27 02:53:34;;;;;;;14.98;11.73;;;;;;;15.61;97.97;101475.31;6307186;22;20007;-82
2022/06/27 02:56:03;;;;;;;16.23;11.68;;;;;;;15.45;97.78;101452.16;6307051;22;20481;-86
2022/06/27 02:59:06;;;;;;;13.30;11.38;;;;;;;15.34;97.42;101436.50;6306462;22;20018;-84
2022/06/27 03:01:32;;;;;;;15.50;11.57;;;;;;;15.30;97.91;101457.66;6212287;22;20016;-84
2022/06/27 03:03:59;;;;;;;14.30;11.65;;;;;;;15.20;98.22;101450.50;6212273;23;20366;-84
2022/06/27 03:06:25;;;;;;;14.93;12.23;;;;;;;15.19;98.66;101467.06;6212263;23;20011;-85
2022/06/27 03:08:50;;;;;;;14.00;11.70;;;;;;;14.85;98.57;101424.47;6212233;23;20009;-82
2022/06/27 03:11:21;;;;;;;15.88;13.35;;;;;;;14.96;98.90;101448.88;6212204;22;20052;-86
2022/06/27 03:13:47;;;;;;;16.98;13.32;;;;;;;14.58;98.51;101400.41;6212365;23;20000;-84
2022/06/27 03:16:14;;;;;;;13.88;12.15;;;;;;;14.89;98.89;101454.50;6212060;23;20063;-83
2022/06/27 03:18:39;;;;;;;16.15;12.43;;;;;;;14.68;99.26;101427.41;6212094;23;20013;-85
2022/06/27 03:21:04;;;;;;;18.77;12.68;;;;;;;14.64;99.33;101441.53;6212092;23;20047;-85
2022/06/27 03:23:30;;;;;;;16.50;11.98;;;;;;;14.68;99.67;101460.38;6212451;23;20040;-84
2022/06/27 03:25:56;;;;;;;13.27;11.23;;;;;;;14.42;99.39;101417.97;6212044;23;20471;-84
2022/06/27 03:28:22;;;;;;;15.75;12.52;;;;;;;14.51;99.39;101454.56;6186173;23;20016;-85
2022/06/27 03:30:49;;;;;;;19.40;11.43;;;;;;;14.42;100.00;101444.78;6212085;23;20031;-85
2022/06/27 03:33:18;;;;;;;14.82;11.85;;;;;;;14.48;99.67;101454.81;6212329;23;20004;-84
2022/06/27 03:35:43;;;;;;;16.15;11.93;;;;;;;14.35;99.89;101438.34;6211962;23;20005;-85
2022/06/27 03:38:12;;;;;;;14.25;11.52;;;;;;;14.46;100.00;101455.84;6275338;22;20409;-82
2022/06/27 03:40:38;;;;;;;15.65;11.77;;;;;;;14.07;99.79;101392.69;6306746;22;20003;-86
2022/06/27 03:43:04;;;;;;;14.85;11.45;;;;;;;14.40;99.74;101446.66;6306752;22;20078;-83
2022/06/27 03:45:30;;;;;;;15.35;11.82;;;;;;;14.17;100.00;101414.47;6306516;22;20433;-85
2022/06/27 03:47:58;;;;;;;14.23;12.30;;;;;;;14.46;99.93;101454.09;6306515;22;20078;-85
2022/06/27 03:50:25;;;;;;;15.82;12.18;;;;;;;14.44;99.78;101453.31;6306495;22;20078;-85
2022/06/27 03:52:52;;;;;;;15.95;12.57;;;;;;;14.25;99.41;101421.72;6306755;22;20010;-85
2022/06/27 03:55:18;;;;;;;16.00;12.98;;;;;;;14.38;99.37;101450.31;6308556;22;20152;-84
2022/06/27 03:57:52;;;;;;;17.23;13.25;;;;;;;14.17;99.78;101424.06;6308716;22;20007;-85
2022/06/27 04:00:19;;;;;;;16.48;13.43;;;;;;;14.33;99.88;101458.41;6308360;22;20013;-85
2022/06/27 04:02:45;;;;;;;17.17;13.13;;;;;;;14.32;99.87;101460.19;6307848;22;20037;-83
2022/06/27 04:05:11;;;;;;;15.77;14.02;;;;;;;14.14;99.84;101442.41;6308500;22;20320;-85
2022/06/27 04:07:36;;;;;;;16.30;13.30;;;;;;;13.90;100.00;101414.59;6308153;22;20007;-84
2022/06/27 04:10:03;;;;;;;16.30;13.50;;;;;;;14.29;99.72;101488.16;6308567;22;20060;-85
2022/06/27 04:12:28;;;;;;;17.05;13.40;;;;;;;14.36;100.00;101484.19;6308742;22;20056;-84
2022/06/27 04:14:53;;;;;;;16.58;13.40;;;;;;;14.49;100.00;101463.44;6308245;22;20042;-85
2022/06/27 04:17:19;;;;;;;19.70;14.00;;;;;;;14.26;100.00;101394.84;6308583;22;20027;-84
2022/06/27 04:19:44;;;;;;;15.55;13.23;;;;;;;14.77;99.92;101441.53;6308321;22;20066;-84
2022/06/27 04:22:09;;;;;;;16.65;14.05;;;;;;;15.12;99.22;101471.03;6308116;22;20008;-85
2022/06/27 04:24:41;;;;;;;17.88;13.88;;;;;;;15.52;98.14;101464.72;6308621;22;20007;-84
2022/06/27 04:27:07;;;;;;;15.82;13.02;;;;;;;15.88;95.31;101420.34;6308557;22;20313;-84
2022/06/27 04:29:32;;;;;;;15.43;13.63;;;;;;;16.63;93.35;101428.41;6308171;22;20009;-80
2022/06/27 04:31:57;;;;;;;15.80;13.27;;;;;;;17.90;87.82;101419.88;6308443;22;20417;-84
2022/06/27 04:34:23;;;;;;;13.07;10.93;;;;;;;19.58;80.14;101421.63;6308328;22;20073;-85
2022/06/27 04:36:49;;;;;;;12.40;11.05;;;;;;;20.93;73.50;101430.69;6307850;22;20004;-83
2022/06/27 04:39:17;;;;;;;13.57;10.52;;;;;;;21.81;69.01;101422.88;6307844;22;20007;-84
2022/06/27 04:41:50;;;;;;;12.70;10.52;;;;;;;21.69;68.59;101410.00;6308361;22;20131;-83
2022/06/27 04:44:16;;;;;;;15.98;11.57;;;;;;;20.92;69.31;101376.53;6307806;22;20405;-84
2022/06/27 04:46:42;;;;;;;15.82;12.90;;;;;;;20.07;71.89;101392.66;6307917;22;20003;-82
2022/06/27 04:49:08;;;;;;;13.15;11.65;;;;;;;19.34;75.49;101395.00;6307830;22;20064;-83
2022/06/27 04:51:39;;;;;;;16.67;12.60;;;;;;;18.82;78.60;101400.50;6307877;22;20056;-84
2022/06/27 04:54:04;;;;;;;;;;;;;;;18.87;79.36;101406.16;6308528;22;20031;-85
2022/06/27 04:56:30;;;;;;;18.20;14.02;;;;;;;18.41;80.49;101403.28;6308201;22;19929;-84
2022/06/27 04:58:55;;;;;;;15.52;13.77;;;;;;;18.16;81.58;101425.47;6279741;22;20027;-85
2022/06/27 05:01:20;;;;;;;16.92;14.13;;;;;;;17.67;82.02;101393.00;6308002;22;20003;-85
2022/06/27 05:03:46;;;;;;;16.73;13.75;;;;;;;17.74;82.90;101428.97;6307370;22;20053;-85
2022/06/27 05:06:11;;;;;;;18.05;14.68;;;;;;;17.54;83.97;101428.97;6307982;22;20003;-85
2022/06/27 05:08:37;;;;;;;15.93;13.93;;;;;;;17.28;86.44;101418.03;6307856;22;19996;-84
2022/06/27 05:11:03;;;;;;;16.70;14.30;;;;;;;17.09;86.80;101408.25;6307962;22;19999;-84
2022/06/27 05:13:29;;;;;;;17.45;14.75;;;;;;;16.97;86.59;101411.88;6308187;22;20321;-84
2022/06/27 05:15:55;;;;;;;16.02;14.43;;;;;;;16.83;88.18;101410.38;6307918;22;20036;-84
2022/06/27 05:18:20;;;;;;;17.42;15.18;;;;;;;16.72;89.61;101399.97;6307585;22;20413;-84
2022/06/27 05:20:46;;;;;;;16.98;14.70;;;;;;;16.63;89.17;101401.50;6307946;22;20037;-84
2022/06/27 05:23:11;;;;;;;17.80;15.85;;;;;;;15.97;90.57;101309.41;6279208;22;20003;-83
2022/06/27 05:25:36;;;;;;;20.33;16.30;;;;;;;16.36;90.73;101388.84;6307785;22;19999;-84
2022/06/27 05:28:03;;;;;;;17.45;15.65;;;;;;;16.31;92.25;101386.59;6280068;22;20054;-82
2022/06/27 05:30:30;;;;;;;18.27;15.60;;;;;;;16.43;92.78;101426.53;6307440;22;20359;-80
2022/06/27 05:32:56;;;;;;;19.45;16.40;;;;;;;16.41;92.50;101417.16;6307459;22;20375;-83
2022/06/27 05:35:21;;;;;;;20.33;16.20;;;;;;;16.14;93.44;101374.06;6307645;22;20003;-83
2022/06/27 05:37:47;;;;;;;20.95;18.65;;;;;;;16.35;92.82;101421.91;6307053;22;19999;-82
2022/06/27 05:40:13;;;;;;;19.45;17.35;;;;;;;16.25;93.00;101423.56;6307333;22;20007;-83
2022/06/27 05:42:39;;;;;;;20.23;17.48;;;;;;;16.22;93.48;101449.88;6280193;22;20060;-83
2022/06/27 05:45:05;;;;;;;23.38;18.00;;;;;;;16.37;93.05;101488.72;6307249;22;19999;-83
2022/06/27 05:47:31;;;;;;;21.60;18.45;;;;;;;16.46;94.12;101501.06;6306733;22;20074;-83
2022/06/27 05:49:59;;;;;;;22.25;17.92;;;;;;;16.34;92.95;101476.78;6306906;22;20368;-83
2022/06/27 05:52:25;;;;;;;18.92;16.73;;;;;;;16.53;91.36;101478.78;6307054;22;20023;-82
2022/06/27 05:54:51;;;;;;;21.50;17.83;;;;;;;16.58;91.97;101492.28;6307014;22;20448;-83
2022/06/27 05:57:18;;;;;;;20.90;17.65;;;;;;;16.84;91.63;101532.03;6279822;22;20011;-82
2022/06/27 05:59:44;;;;;;;21.55;17.50;;;;;;;16.88;91.71;101536.03;6306753;22;20007;-82
2022/06/27 06:02:10;;;;;;;21.50;16.83;;;;;;;16.67;91.24;101515.03;6307005;22;20075;-82
2022/06/27 06:04:36;;;;;;;19.65;17.02;;;;;;;16.83;91.67;101541.63;6307626;22;20034;-82
2022/06/27 06:07:03;;;;;;;22.63;16.90;;;;;;;16.80;90.55;101541.84;6278530;22;20003;-83
2022/06/27 06:09:28;;;;;;;20.90;17.27;;;;;;;16.64;92.29;101521.34;6307697;22;20011;-82
2022/06/27 06:11:54;;;;;;;20.35;17.58;;;;;;;16.80;90.95;101531.41;6280705;22;20429;-82
2022/06/27 06:14:21;;;;;;;20.55;16.92;;;;;;;16.77;90.21;101502.97;6306781;22;20003;-81
2022/06/27 06:16:48;;;;;;;21.02;17.77;;;;;;;16.89;90.73;101512.44;6306169;22;20006;-83
2022/06/27 06:19:14;;;;;;;19.80;17.17;;;;;;;16.97;91.46;101508.41;6306560;22;20003;-82
2022/06/27 06:21:40;;;;;;;20.65;16.35;;;;;;;16.88;89.16;101484.69;6307150;22;20050;-82
2022/06/27 06:24:06;;;;;;;21.15;17.70;;;;;;;17.06;90.79;101505.06;6307321;22;20421;-81
2022/06/27 06:26:32;;;;;;;19.70;16.90;;;;;;;16.99;90.47;101496.88;6278816;22;20003;-82
2022/06/27 06:28:59;;;;;;;18.75;16.85;;;;;;;17.03;90.59;101506.16;6279219;22;20551;-82
2022/06/27 06:31:24;;;;;;;21.88;17.92;;;;;;;17.16;91.07;101545.16;6306623;22;20425;-81
2022/06/27 06:33:51;;;;;;;19.83;17.58;;;;;;;16.91;91.39;101507.09;6307028;22;20057;-84
2022/06/27 06:36:21;;;;;;;21.92;17.42;;;;;;;17.06;92.37;101539.00;6307234;22;20064;-82
2022/06/27 06:38:48;;;;;;;12.10;10.60;;;;;;;17.26;91.89;101534.78;6306614;22;20003;-84
2022/06/27 06:41:14;;;;;;;14.35;11.95;;;;;;;17.20;90.15;101494.34;6278523;22;20056;-85
2022/06/27 06:43:40;;;;;;;15.00;11.75;;;;;;;17.65;88.68;101541.19;6307222;22;20023;-85
2022/06/27 06:46:05;;;;;;;12.50;10.38;;;;;;;17.86;88.00;101529.00;6307032;22;20003;-80
2022/06/27 06:48:32;;;;;;;13.40;10.98;;;;;;;17.81;86.54;101496.41;6307245;22;20011;-82
2022/06/27 06:50:57;;;;;;;13.88;12.10;;;;;;;18.08;84.69;101508.94;6279432;22;20337;-83
2022/06/27 06:53:23;;;;;;;15.10;11.13;;;;;;;18.13;84.92;101478.84;6306645;22;20070;-80
2022/06/27 06:55:48;;;;;;;12.10;9.88;;;;;;;18.15;85.06;101439.50;6306516;22;20041;-83
2022/06/27 06:58:14;;;;;;;13.60;11.45;;;;;;;18.35;84.53;101467.38;6307123;22;20003;-80
2022/06/27 07:00:39;;;;;;;14.85;11.32;;;;;;;18.48;84.02;101456.69;6307150;22;20426;-82
2022/06/27 07:03:06;;;;;;;13.35;10.50;;;;;;;18.65;83.91;101458.72;6307025;22;20006;-83
2022/06/27 07:05:32;;;;;;;12.88;9.80;;;;;;;18.71;83.84;101463.44;6306810;22;20007;-81
2022/06/27 07:07:58;;;;;;;17.58;11.90;;;;;;;18.79;82.78;101457.53;6307016;22;20004;-82
2022/06/27 07:10:25;;;;;;;11.23;8.77;;;;;;;19.11;81.45;101479.06;6306579;22;20409;-82
2022/06/27 07:12:51;;;;;;;12.48;10.55;;;;;;;19.34;80.68;101471.75;6306510;22;19999;-83
2022/06/27 07:15:18;;;;;;;15.13;11.48;;;;;;;19.35;79.39;101441.16;6306887;22;20007;-83
2022/06/27 07:17:46;;;;;;;13.85;12.13;;;;;;;19.67;78.98;101462.69;6306672;22;20061;-80
2022/06/27 07:20:13;;;;;;;14.35;9.25;;;;;;;19.68;77.67;101425.03;6306551;22;20006;-82
2022/06/27 07:22:41;;;;;;;16.40;11.27;;;;;;;19.83;76.88;101475.19;6306722;22;20038;-80
2022/06/27 07:25:07;;;;;;;13.70;10.05;;;;;;;19.87;77.50;101494.13;6306473;22;20014;-82
2022/06/27 07:27:34;;;;;;;14.25;11.85;;;;;;;19.59;76.63;101482.69;6307190;22;20758;-82
2022/06/27 07:30:04;;;;;;;19.15;12.40;;;;;;;19.70;77.20;101493.84;6281041;22;20516;-82
2022/06/27 07:32:31;;;;;;;13.43;10.10;;;;;;;19.77;76.27;101489.72;6308199;22;20003;-79
2022/06/27 07:34:58;;;;;;;13.55;11.00;;;;;;;20.14;75.24;101524.81;6308496;22;20010;-83
2022/06/27 07:37:25;;;;;;;13.35;10.68;;;;;;;20.49;73.44;101511.91;6308526;22;20330;-82
2022/06/27 07:39:50;;;;;;;12.20;10.52;;;;;;;21.09;70.36;101511.44;6308442;22;20000;-83
2022/06/27 07:42:16;;;;;;;10.88;8.70;;;;;;;21.57;69.24;101520.81;6308931;22;20144;-85
2022/06/27 07:44:42;;;;;;;13.52;10.25;;;;;;;21.68;67.88;101512.69;6308977;22;20010;-83
2022/06/27 07:47:08;;;;;;;15.13;9.18;;;;;;;21.73;67.13;101498.13;6280822;22;20337;-82
2022/06/27 07:49:33;;;;;;;11.93;8.98;;;;;;;21.92;66.94;101533.06;6308191;22;20012;-84
2022/06/27 07:51:59;;;;;;;12.90;10.60;;;;;;;21.91;66.20;101523.53;6308882;22;20007;-83
2022/06/27 07:54:26;;;;;;;14.32;10.48;;;;;;;21.90;67.10;101520.06;6308618;22;19999;-83
2022/06/27 07:56:52;;;;;;;12.75;9.75;;;;;;;21.86;66.11;101531.06;6308851;22;20325;-82
2022/06/27 07:59:18;;;;;;;13.30;10.23;;;;;;;21.73;67.70;101526.22;6280388;22;20011;-82
2022/06/27 08:01:44;;;;;;;15.70;12.10;;;;;;;21.37;67.67;101528.84;6308610;22;20010;-82
2022/06/27 08:04:11;;;;;;;15.25;9.60;;;;;;;21.02;68.18;101510.38;6308368;22;19995;-78
2022/06/27 08:06:38;;;;;;;12.80;9.15;;;;;;;20.97;69.92;101547.59;6308709;22;20362;-80
2022/06/27 08:09:05;;;;;;;14.23;10.30;;;;;;;20.75;71.12;101564.56;6308432;22;20035;-80
2022/06/27 08:11:33;;;;;;;13.80;10.32;;;;;;;20.50;71.50;101517.97;6308097;22;20007;-78
2022/06/27 08:14:05;;;;;;;12.23;10.15;;;;;;;20.79;71.00;101544.09;6280945;22;20015;-80
2022/06/27 08:16:32;;;;;;;13.43;10.95;;;;;;;20.92;69.61;101550.63;6308417;22;20006;-77
2022/06/27 08:18:58;;;;;;;16.73;12.07;;;;;;;20.84;70.81;101521.69;6308021;22;20014;-83
2022/06/27 08:21:25;;;;;;;13.88;10.63;;;;;;;21.19;69.77;101548.97;6308012;22;20324;-81
2022/06/27 08:23:56;;;;;;;17.40;13.60;;;;;;;21.11;69.09;101536.59;6308108;22;20478;-81
2022/06/27 08:26:23;;;;;;;18.80;14.00;;;;;;;20.88;68.54;101532.72;6308329;22;20000;-79
2022/06/27 08:28:50;;;;;;;16.50;13.95;;;;;;;20.73;70.26;101519.25;6308061;22;20036;-81
2022/06/27 08:31:16;;;;;;;18.65;13.35;;;;;;;20.60;69.41;101490.72;6308365;22;19999;-82
2022/06/27 08:33:44;;;;;;;15.75;12.48;;;;;;;20.89;71.32;101563.25;6308473;22;20074;-76
2022/06/27 08:36:12;;;;;;;17.67;14.40;;;;;;;20.58;71.68;101560.06;6308265;22;19995;-78
2022/06/27 08:38:42;;;;;;;16.45;13.45;;;;;;;20.50;70.23;101581.78;6307974;22;20011;-82
2022/06/27 08:41:09;;;;;;;16.02;13.25;;;;;;;20.39;73.84;101588.97;6280472;22;20003;-81
2022/06/27 08:43:35;;;;;;;14.63;11.77;;;;;;;20.27;75.76;101568.13;6308488;22;20003;-82
2022/06/27 08:46:01;;;;;;;16.65;14.60;;;;;;;20.02;73.71;101548.56;6308126;22;20409;-81
2022/06/27 08:48:28;;;;;;;14.40;11.25;;;;;;;20.30;74.80;101585.38;6307864;22;20011;-81
2022/06/27 08:50:56;;;;;;;16.77;13.25;;;;;;;20.24;73.49;101586.75;6308141;22;20033;-81
2022/06/27 08:53:23;;;;;;;13.68;11.77;;;;;;;20.25;74.36;101571.84;6307896;22;20023;-81
2022/06/27 08:55:48;;;;;;;14.10;12.48;;;;;;;20.26;74.65;101563.03;6308012;22;20007;-82
2022/06/27 08:58:14;;;;;;;14.98;10.82;;;;;;;20.57;74.36;101577.63;6308013;22;20014;-80
2022/06/27 09:00:45;;;;;;;14.60;11.75;;;;;;;20.65;73.46;101579.53;6307854;22;20030;-80
2022/06/27 09:03:17;;;;;;;15.73;12.27;;;;;;;20.61;72.81;101557.16;6308069;22;20003;-80
2022/06/27 09:05:45;;;;;;;17.63;14.50;;;;;;;20.73;73.10;101581.41;6307797;22;20062;-79
2022/06/27 09:08:11;;;;;;;14.30;11.18;;;;;;;20.93;71.80;101588.22;6308140;22;20413;-79
2022/06/27 09:10:42;;;;;;;16.50;10.93;;;;;;;20.92;71.50;101579.53;6307675;22;20026;-82
2022/06/27 09:13:09;;;;;;;11.90;8.55;;;;;;;21.38;70.93;101608.50;6307716;22;20034;-80
2022/06/27 09:15:37;;;;;;;15.18;12.57;;;;;;;21.42;69.83;101600.16;6306607;22;19999;-82
2022/06/27 09:18:05;;;;;;;14.25;10.82;;;;;;;21.58;69.30;101593.41;6308385;22;20004;-81
2022/06/27 09:21:04;;;;;;;17.00;13.43;;;;;;;21.66;69.43;101583.81;6307753;22;20033;-81
2022/06/27 09:23:32;;;;;;;17.25;13.50;;;;;;;21.96;66.50;101582.59;6307595;22;20000;-80
2022/06/27 09:25:59;;;;;;;13.38;10.38;;;;;;;21.93;65.59;101509.25;6307383;22;20011;-81
2022/06/27 09:28:39;;;;;;;14.02;9.82;;;;;;;22.71;65.07;101572.38;6307189;22;20378;-82
2022/06/27 09:31:06;;;;;;;11.00;9.03;;;;;;;22.93;62.73;101594.75;6307565;22;20056;-83
2022/06/27 09:33:32;;;;;;;13.60;10.23;;;;;;;22.97;62.76;101597.88;6307349;22;19999;-82
2022/06/27 09:35:57;;;;;;;14.52;10.25;;;;;;;22.82;62.49;101595.81;6307288;22;20002;-82
2022/06/27 09:38:23;;;;;;;10.85;7.40;;;;;;;22.48;63.34;101547.59;6307130;22;20010;-82
2022/06/27 09:40:49;;;;;;;12.32;8.43;;;;;;;22.89;62.34;101602.13;6306951;22;20082;-82
2022/06/27 09:43:22;;;;;;;12.65;8.68;;;;;;;22.87;61.55;101588.28;6307250;22;20003;-83
2022/06/27 09:45:48;;;;;;;12.85;9.77;;;;;;;22.90;61.73;101576.59;6306871;22;20030;-84
2022/06/27 09:48:17;;;;;;;14.82;10.35;;;;;;;22.94;61.98;101591.13;6307381;22;20117;-84
2022/06/27 09:50:43;;;;;;;11.30;8.57;;;;;;;22.91;61.54;101570.38;6307762;22;20072;-82
2022/06/27 09:53:09;;;;;;;10.85;6.78;;;;;;;23.25;60.85;101585.28;6307502;22;20034;-83
2022/06/27 09:55:37;;;;;;;10.95;8.88;;;;;;;23.12;60.65;101554.97;6306936;22;20306;-84
2022/06/27 09:58:06;;;;;;;13.48;10.18;;;;;;;23.46;59.29;101556.66;6307259;22;20431;-85
2022/06/27 10:00:32;;;;;;;12.68;8.25;;;;;;;23.77;58.69;101590.34;6307197;22;20397;-82
2022/06/27 10:02:58;;;;;;;11.85;9.85;;;;;;;23.69;58.62;101570.88;6307239;22;20133;-83
2022/06/27 10:05:24;;;;;;;9.52;7.30;;;;;;;23.85;56.77;101583.25;6307371;22;20448;-82
2022/06/27 10:08:12;;;;;;;13.60;10.32;;;;;;;23.64;56.55;101551.28;6307146;22;20078;-83
2022/06/27 10:11:07;;;;;;;14.05;10.60;;;;;;;23.72;57.04;101567.94;6307074;22;20023;-83
2022/06/27 10:13:34;;;;;;;10.65;6.72;;;;;;;23.52;58.51;101534.94;6306866;22;19999;-84
2022/06/27 10:16:10;;;;;;;12.13;9.05;;;;;;;23.59;58.15;101535.94;6306978;22;20018;-85
2022/06/27 10:19:03;;;;;;;13.10;9.48;;;;;;;24.02;58.23;101562.97;6306698;22;20003;-85
2022/06/27 10:21:40;;;;;;;14.27;10.73;;;;;;;24.30;57.76;101564.25;6307154;22;20030;-83
2022/06/27 10:24:27;;;;;;;11.65;7.43;;;;;;;24.55;53.44;101561.56;6306992;22;20077;-84
2022/06/27 10:26:55;;;;;;;8.85;5.93;;;;;;;24.42;52.72;101559.47;6306995;22;20383;-83
2022/06/27 10:29:26;;;;;;;9.25;6.00;;;;;;;24.37;51.60;101567.06;6306729;22;20480;-85
2022/06/27 10:31:52;;;;;;;8.80;6.15;;;;;;;24.51;52.69;101557.63;6306904;22;20006;-84
2022/06/27 10:34:17;;;;;;;10.25;6.82;;;;;;;24.53;53.21;101530.03;6307352;22;20003;-83
2022/06/27 10:36:42;;;;;;;9.82;6.28;;;;;;;24.73;52.79;101556.88;6306050;22;20274;-84
2022/06/27 10:39:23;;;;;;;10.82;8.38;;;;;;;24.54;53.10;101539.63;6307911;22;20014;-82
2022/06/27 10:41:49;;;;;;;11.60;8.85;;;;;;;24.42;52.80;101567.38;6306982;22;20053;-83
2022/06/27 10:44:31;;;;;;;11.65;8.65;;;;;;;24.30;54.87;101561.59;6306588;22;19999;-82
2022/06/27 10:46:56;;;;;;;11.63;7.70;;;;;;;23.93;54.44;101542.88;6307014;22;20034;-82
2022/06/27 10:49:23;;;;;;;13.10;8.55;;;;;;;23.91;54.71;101558.88;6306469;22;20015;-83
2022/06/27 10:51:50;;;;;;;11.52;7.43;;;;;;;23.91;54.61;101571.22;6306300;22;19999;-82
2022/06/27 10:54:16;;;;;;;10.55;8.27;;;;;;;23.68;55.16;101569.22;6306318;22;20333;-82
2022/06/27 10:56:50;;;;;;;10.88;9.48;;;;;;;23.58;55.51;101563.25;6306562;22;19999;-82
2022/06/27 10:59:15;;;;;;;13.18;10.30;;;;;;;23.61;55.14;101570.06;6306623;22;20087;-81
2022/06/27 11:02:04;;;;;;;12.00;8.65;;;;;;;23.65;56.33;101566.09;6306351;22;20035;-85
2022/06/27 11:04:29;;;;;;;12.55;9.73;;;;;;;23.48;56.96;101575.78;6278815;22;20077;-82
2022/06/27 11:06:59;;;;;;;11.82;7.85;;;;;;;23.21;55.79;101576.06;6307016;22;20417;-84
2022/06/27 11:09:35;;;;;;;14.68;9.88;;;;;;;22.83;57.47;101586.94;6278410;22;20358;-84
2022/06/27 11:12:00;;;;;;;13.68;9.02;;;;;;;22.56;56.44;101580.06;6306822;22;20011;-81